createdAt,value
2023-05-02T00:01:10.012Z,100440.56
2023-05-02T00:04:13.420Z,100436.25
2023-05-02T00:07:16.375Z,100437.00
2023-05-02T00:10:19.713Z,100426.75
2023-05-02T00:13:22.355Z,100432.97
2023-05-02T00:16:25.583Z,100426.63
2023-05-02T00:19:28.396Z,100421.91
2023-05-02T00:22:31.956Z,100429.78
2023-05-02T00:25:34.593Z,100426.56
2023-05-02T00:28:37.611Z,100421.78
2023-05-02T00:31:43.651Z,100428.00
2023-05-02T00:34:46.811Z,100422.50
2023-05-02T00:37:49.513Z,100428.72
2023-05-02T00:40:53.517Z,100410.66
2023-05-02T00:43:56.175Z,100426.38
2023-05-02T00:47:01.206Z,100432.69
2023-05-02T00:50:05.634Z,100425.22
2023-05-02T00:53:10.545Z,100421.78
2023-05-02T00:56:13.268Z,100424.88
2023-05-02T00:59:16.973Z,100435.09
2023-05-02T01:02:58.049Z,100430.41
2023-05-02T01:06:32.085Z,100427.00
2023-05-02T01:09:53.782Z,100425.81
2023-05-02T01:13:22.083Z,100419.87
2023-05-02T01:16:26.213Z,100424.69
2023-05-02T01:19:34.511Z,100409.72
2023-05-02T01:22:42.597Z,100422.00
2023-05-02T01:26:04.237Z,100397.69
2023-05-02T01:29:09.574Z,100411.16
2023-05-02T01:32:15.184Z,100408.44
2023-05-02T01:35:20.270Z,100406.13
2023-05-02T01:38:25.465Z,100393.91
2023-05-02T01:41:31.196Z,100407.28
2023-05-02T01:44:36.668Z,100401.78
2023-05-02T01:47:42.255Z,100404.13
2023-05-02T01:50:47.795Z,100409.22
2023-05-02T01:53:52.513Z,100409.59
2023-05-02T01:56:56.822Z,100410.72
2023-05-02T02:00:00.943Z,100407.53
2023-05-02T02:03:08.201Z,100404.00
2023-05-02T02:06:12.705Z,100412.25
2023-05-02T02:09:15.669Z,100405.50
2023-05-02T02:12:28.540Z,100406.34
2023-05-02T02:15:35.697Z,100403.94
2023-05-02T02:18:39.688Z,100390.09
2023-05-02T02:21:46.798Z,100402.38
2023-05-02T02:24:53.042Z,100399.16
2023-05-02T02:27:57.840Z,100396.91
2023-05-02T02:31:00.990Z,100406.66
2023-05-02T02:34:05.237Z,100404.38
2023-05-02T02:37:19.743Z,100402.38
2023-05-02T02:40:34.736Z,100394.44
2023-05-02T02:44:04.312Z,100386.56
2023-05-02T02:47:30.911Z,100399.19
2023-05-02T02:50:44.001Z,100393.34
2023-05-02T02:54:04.479Z,100403.19
2023-05-02T02:57:17.691Z,100403.25
2023-05-02T03:00:24.993Z,100396.94
2023-05-02T03:03:29.714Z,100394.84
2023-05-02T03:06:33.139Z,100396.78
2023-05-02T03:09:44.976Z,100388.91
2023-05-02T03:12:49.152Z,100401.94
2023-05-02T03:15:51.867Z,100396.78
2023-05-02T03:18:55.384Z,100398.00
2023-05-02T03:21:58.806Z,100395.63
2023-05-02T03:25:02.026Z,100408.97
2023-05-02T03:28:04.966Z,100407.00
2023-05-02T03:31:08.540Z,100408.16
2023-05-02T03:34:11.852Z,100407.75
2023-05-02T03:37:15.206Z,100407.34
2023-05-02T03:40:22.004Z,100415.63
2023-05-02T03:43:25.225Z,100415.25
2023-05-02T03:46:28.178Z,100401.34
2023-05-02T03:49:34.116Z,100416.37
2023-05-02T03:52:37.296Z,100422.22
2023-05-02T03:55:46.628Z,100421.91
2023-05-02T03:58:49.546Z,100422.25
2023-05-02T04:01:53.472Z,100428.53
2023-05-02T04:04:56.960Z,100428.59
2023-05-02T04:07:59.976Z,100429.75
2023-05-02T04:11:03.166Z,100434.94
2023-05-02T04:14:06.937Z,100436.47
2023-05-02T04:17:10.378Z,100437.19
2023-05-02T04:20:13.953Z,100445.75
2023-05-02T04:23:18.741Z,100441.19
2023-05-02T04:26:22.026Z,100447.50
2023-05-02T04:29:25.453Z,100448.00
2023-05-02T04:32:29.629Z,100445.72
2023-05-02T04:35:32.947Z,100449.38
2023-05-02T04:38:35.997Z,100454.56
2023-05-02T04:41:39.539Z,100466.78
2023-05-02T04:44:42.625Z,100467.59
2023-05-02T04:47:45.757Z,100455.41
2023-05-02T04:50:49.481Z,100461.00
2023-05-02T04:53:52.986Z,100470.03
2023-05-02T04:56:55.799Z,100470.53
2023-05-02T04:59:59.956Z,100473.28
2023-05-02T05:03:03.649Z,100465.44
2023-05-02T05:06:07.298Z,100468.56
2023-05-02T05:09:10.632Z,100468.19
2023-05-02T05:12:13.989Z,100466.59
2023-05-02T05:15:17.099Z,100468.59
2023-05-02T05:18:21.492Z,100458.31
2023-05-02T05:21:24.406Z,100457.16
2023-05-02T05:24:27.785Z,100464.63
2023-05-02T05:27:31.480Z,100475.66
2023-05-02T05:30:34.958Z,100476.00
2023-05-02T05:33:40.133Z,100477.56
2023-05-02T05:36:44.379Z,100467.28
2023-05-02T05:39:47.700Z,100467.84
2023-05-02T05:42:50.821Z,100475.47
2023-05-02T05:45:56.034Z,100466.31
2023-05-02T05:48:59.065Z,100479.62
2023-05-02T05:52:03.370Z,100475.22
2023-05-02T05:55:07.639Z,100473.38
2023-05-02T05:58:11.040Z,100487.19
2023-05-02T06:01:15.361Z,100491.53
2023-05-02T06:04:18.595Z,100487.00
2023-05-02T06:07:21.895Z,100476.75
2023-05-02T06:10:25.463Z,100489.97
2023-05-02T06:13:28.407Z,100485.66
2023-05-02T06:16:31.682Z,100478.81
2023-05-02T06:19:34.408Z,100495.00
2023-05-02T06:22:37.647Z,100487.00
2023-05-02T06:25:40.353Z,100493.88
2023-05-02T06:28:43.630Z,100487.47
2023-05-02T06:31:46.383Z,100493.06
2023-05-02T06:34:49.503Z,100494.53
2023-05-02T06:37:52.220Z,100494.50
2023-05-02T06:40:55.181Z,100495.09
2023-05-02T06:43:57.990Z,100492.59
2023-05-02T06:47:01.043Z,100498.34
2023-05-02T06:50:04.022Z,100485.94
2023-05-02T06:53:07.265Z,100486.28
2023-05-02T06:56:10.146Z,100480.38
2023-05-02T06:59:13.134Z,100481.75
2023-05-02T07:02:15.922Z,100477.59
2023-05-02T07:05:19.027Z,100490.69
2023-05-02T07:08:23.985Z,100492.88
2023-05-02T07:11:28.131Z,100506.25
2023-05-02T07:14:30.905Z,100493.94
2023-05-02T07:17:34.509Z,100498.50
2023-05-02T07:20:38.950Z,100494.28
2023-05-02T07:23:41.905Z,100501.28
2023-05-02T07:26:44.970Z,100492.00
2023-05-02T07:29:48.304Z,100497.94
2023-05-02T07:32:51.031Z,100503.00
2023-05-02T07:35:56.633Z,100505.97
2023-05-02T07:38:59.451Z,100501.94
2023-05-02T07:42:03.838Z,100492.56
2023-05-02T07:45:07.446Z,100498.66
2023-05-02T07:48:10.638Z,100510.41
2023-05-02T07:51:13.643Z,100504.25
2023-05-02T07:54:17.693Z,100490.00
2023-05-02T07:57:20.428Z,100504.25
2023-05-02T08:00:23.541Z,100504.87
2023-05-02T08:03:28.132Z,100513.16
2023-05-02T08:06:33.197Z,100509.66
2023-05-02T08:09:36.541Z,100501.34
2023-05-02T08:12:40.904Z,100511.91
2023-05-02T08:15:44.065Z,100510.00
2023-05-02T08:18:47.673Z,100502.44
2023-05-02T08:21:50.782Z,100509.06
2023-05-02T08:24:53.577Z,100520.19
2023-05-02T08:27:56.568Z,100517.03
2023-05-02T08:30:59.330Z,100515.25
2023-05-02T08:34:13.277Z,100509.13
2023-05-02T08:37:16.102Z,100511.31
2023-05-02T08:40:34.025Z,100512.16
2023-05-02T08:43:44.460Z,100509.34
2023-05-02T08:46:51.166Z,100505.44
2023-05-02T08:49:55.499Z,100505.91
2023-05-02T08:52:59.643Z,100495.78
2023-05-02T08:56:03.335Z,100507.41
2023-05-02T08:59:06.988Z,100509.44
2023-05-02T09:02:22.783Z,100500.38
2023-05-02T09:05:25.982Z,100486.66
2023-05-02T09:08:28.655Z,100490.00
2023-05-02T09:11:31.679Z,100502.09
2023-05-02T09:14:34.348Z,100503.41
2023-05-02T09:17:44.750Z,100508.06
2023-05-02T09:20:47.697Z,100501.25
2023-05-02T09:23:55.773Z,100490.12
2023-05-02T09:26:58.765Z,100498.09
2023-05-02T09:30:20.545Z,100502.94
2023-05-02T09:33:29.554Z,100503.31
2023-05-02T09:36:40.945Z,100497.59
2023-05-02T09:40:07.308Z,100497.53
2023-05-02T09:43:17.223Z,100493.88
2023-05-02T09:46:20.325Z,100488.09
2023-05-02T09:49:46.698Z,100485.75
2023-05-02T09:53:03.188Z,100496.28
2023-05-02T09:56:06.668Z,100488.88
2023-05-02T09:59:16.472Z,100489.94
2023-05-02T10:02:21.995Z,100483.94
2023-05-02T10:05:26.048Z,100480.69
2023-05-02T10:08:29.195Z,100496.12
2023-05-02T10:11:33.702Z,100491.13
2023-05-02T10:14:44.162Z,100492.00
2023-05-02T10:17:50.963Z,100480.00
2023-05-02T10:21:05.599Z,100479.44
2023-05-02T10:24:09.241Z,100472.38
2023-05-02T10:27:12.341Z,100469.19
2023-05-02T10:30:16.696Z,100471.78
2023-05-02T10:33:21.728Z,100469.69
2023-05-02T10:36:24.661Z,100466.44
2023-05-02T10:39:28.083Z,100471.66
2023-05-02T10:42:35.307Z,100468.06
2023-05-02T10:45:38.013Z,100470.03
2023-05-02T10:48:42.270Z,100464.09
2023-05-02T10:51:45.532Z,100467.50
2023-05-02T10:54:48.790Z,100465.84
2023-05-02T10:57:57.576Z,100473.25
2023-05-02T11:01:30.067Z,100472.19
2023-05-02T11:05:07.924Z,100469.03
2023-05-02T11:08:19.316Z,100474.37
2023-05-02T11:11:43.719Z,100473.31
2023-05-02T11:14:48.812Z,100473.63
2023-05-02T11:18:13.279Z,100465.66
2023-05-02T11:21:31.289Z,100478.59
2023-05-02T11:24:41.656Z,100471.56
2023-05-02T11:27:46.442Z,100469.38
2023-05-02T11:30:51.030Z,100483.56
2023-05-02T11:33:57.757Z,100474.97
2023-05-02T11:37:00.454Z,100483.41
2023-05-02T11:40:13.839Z,100471.59
2023-05-02T11:43:19.253Z,100465.62
2023-05-02T11:46:23.181Z,100463.87
2023-05-02T11:49:26.817Z,100465.16
2023-05-02T11:52:30.864Z,100471.56
2023-05-02T11:55:33.649Z,100462.19
2023-05-02T11:58:37.249Z,100464.41
2023-05-02T12:01:53.744Z,100470.31
2023-05-02T12:04:56.784Z,100469.69
2023-05-02T12:08:01.318Z,100460.84
2023-05-02T12:11:04.389Z,100457.84
2023-05-02T12:14:07.276Z,100452.97
2023-05-02T12:17:10.456Z,100459.81
2023-05-02T12:20:13.589Z,100453.13
2023-05-02T12:23:17.105Z,100460.87
2023-05-02T12:26:25.905Z,100461.53
2023-05-02T12:29:38.822Z,100454.59
2023-05-02T12:32:45.559Z,100446.47
2023-05-02T12:35:49.205Z,100442.25
2023-05-02T12:38:53.420Z,100443.97
2023-05-02T12:41:57.862Z,100431.31
2023-05-02T12:45:01.304Z,100437.19
2023-05-02T12:48:22.212Z,100440.00
2023-05-02T12:51:25.475Z,100440.00
2023-05-02T12:54:29.027Z,100436.63
2023-05-02T12:57:31.960Z,100425.44
2023-05-02T13:00:40.029Z,100439.91
2023-05-02T13:03:44.303Z,100437.91
2023-05-02T13:06:47.479Z,100430.72
2023-05-02T13:09:50.457Z,100417.84
2023-05-02T13:12:54.356Z,100421.84
2023-05-02T13:15:57.170Z,100417.63
2023-05-02T13:19:00.762Z,100413.59
2023-05-02T13:22:04.278Z,100416.00
2023-05-02T13:25:08.974Z,100417.19
2023-05-02T13:28:13.121Z,100415.66
2023-05-02T13:31:16.532Z,100420.69
2023-05-02T13:34:20.105Z,100415.06
2023-05-02T13:37:23.554Z,100411.44
2023-05-02T13:40:27.099Z,100412.25
2023-05-02T13:43:30.093Z,100409.44
2023-05-02T13:46:37.753Z,100417.16
2023-05-02T13:49:41.344Z,100403.25
2023-05-02T13:52:45.106Z,100414.28
2023-05-02T13:55:49.091Z,100408.22
2023-05-02T13:58:51.928Z,100407.38
2023-05-02T14:01:56.140Z,100402.84
2023-05-02T14:04:59.234Z,100409.53
2023-05-02T14:08:01.871Z,100398.94
2023-05-02T14:11:07.186Z,100411.13
2023-05-02T14:14:12.632Z,100409.13
2023-05-02T14:17:15.913Z,100408.78
2023-05-02T14:20:18.946Z,100400.97
2023-05-02T14:23:22.402Z,100400.88
2023-05-02T14:26:25.130Z,100401.09
2023-05-02T14:29:28.200Z,100389.84
2023-05-02T14:32:31.084Z,100393.50
2023-05-02T14:35:34.503Z,100394.28
2023-05-02T14:38:37.487Z,100401.62
2023-05-02T14:41:40.564Z,100398.34
2023-05-02T14:44:43.360Z,100396.94
2023-05-02T14:47:47.247Z,100399.84
2023-05-02T14:50:49.928Z,100385.31
2023-05-02T14:53:54.461Z,100388.84
2023-05-02T14:56:57.357Z,100394.75
2023-05-02T15:00:00.952Z,100392.06
2023-05-02T15:03:09.921Z,100391.09
2023-05-02T15:06:14.763Z,100387.72
2023-05-02T15:09:18.168Z,100393.78
2023-05-02T15:12:21.513Z,100384.53
2023-05-02T15:15:25.391Z,100387.69
2023-05-02T15:18:28.885Z,100386.88
2023-05-02T15:21:32.794Z,100381.09
2023-05-02T15:24:36.101Z,100391.81
2023-05-02T15:27:38.764Z,100390.19
2023-05-02T15:30:41.977Z,100392.56
2023-05-02T15:33:44.687Z,100392.19
2023-05-02T15:36:47.684Z,100385.97
2023-05-02T15:39:50.913Z,100389.72
2023-05-02T15:42:54.336Z,100396.37
2023-05-02T15:45:58.990Z,100376.91
2023-05-02T15:49:02.265Z,100377.28
2023-05-02T15:52:04.999Z,100381.88
2023-05-02T15:55:08.382Z,100385.87
2023-05-02T15:58:11.089Z,100375.94
2023-05-02T16:01:14.168Z,100373.81
2023-05-02T16:04:17.268Z,100372.44
2023-05-02T16:07:20.043Z,100376.09
2023-05-02T16:10:23.274Z,100377.91
2023-05-02T16:13:26.134Z,100378.59
2023-05-02T16:16:29.157Z,100372.16
2023-05-02T16:19:31.940Z,100379.56
2023-05-02T16:22:35.552Z,100382.19
2023-05-02T16:25:38.215Z,100372.25
2023-05-02T16:28:44.275Z,100381.97
2023-05-02T16:31:47.973Z,100376.84
2023-05-02T16:34:51.047Z,100385.13
2023-05-02T16:37:53.933Z,100374.25
2023-05-02T16:40:57.647Z,100383.22
2023-05-02T16:44:00.278Z,100381.66
2023-05-02T16:47:03.369Z,100388.38
2023-05-02T16:50:07.037Z,100393.84
2023-05-02T16:53:10.266Z,100393.22
2023-05-02T16:56:13.310Z,100387.03
2023-05-02T16:59:16.448Z,100396.22
2023-05-02T17:02:21.096Z,100402.69
2023-05-02T17:05:24.309Z,100399.72
2023-05-02T17:08:27.858Z,100403.28
2023-05-02T17:11:31.026Z,100406.63
2023-05-02T17:14:34.139Z,100404.59
2023-05-02T17:17:37.201Z,100411.59
2023-05-02T17:20:41.266Z,100412.91
2023-05-02T17:23:44.266Z,100421.91
2023-05-02T17:26:47.361Z,100420.00
2023-05-02T17:29:50.539Z,100420.22
2023-05-02T17:32:53.499Z,100424.75
2023-05-02T17:35:56.581Z,100424.19
2023-05-02T17:39:00.235Z,100424.84
2023-05-02T17:42:03.770Z,100432.97
2023-05-02T17:45:07.689Z,100439.84
2023-05-02T17:48:11.583Z,100440.13
2023-05-02T17:51:17.367Z,100442.28
2023-05-02T17:54:20.957Z,100447.09
2023-05-02T17:57:24.184Z,100454.66
2023-05-02T18:00:49.893Z,100454.13
2023-05-02T18:04:16.039Z,100459.78
2023-05-02T18:07:27.490Z,100464.75
2023-05-02T18:10:35.647Z,100456.19
2023-05-02T18:13:39.746Z,100461.66
2023-05-02T18:16:47.516Z,100469.25
2023-05-02T18:19:50.555Z,100470.50
2023-05-02T18:22:58.237Z,100475.62
2023-05-02T18:26:01.912Z,100485.59
2023-05-02T18:29:06.248Z,100482.88
2023-05-02T18:32:09.346Z,100487.81
2023-05-02T18:35:12.763Z,100492.00
2023-05-02T18:38:16.233Z,100489.44
2023-05-02T18:41:20.494Z,100497.56
2023-05-02T18:44:24.843Z,100497.22
2023-05-02T18:47:28.193Z,100504.00
2023-05-02T18:50:31.859Z,100512.38
2023-05-02T18:53:35.853Z,100507.78
2023-05-02T18:56:39.096Z,100507.47
2023-05-02T18:59:42.623Z,100511.47
2023-05-02T19:02:45.532Z,100510.38
2023-05-02T19:05:52.773Z,100521.41
2023-05-02T19:08:56.214Z,100524.19
2023-05-02T19:11:59.484Z,100528.84
2023-05-02T19:15:04.930Z,100535.91
2023-05-02T19:18:08.864Z,100532.72
2023-05-02T19:21:14.073Z,100533.47
2023-05-02T19:24:21.219Z,100543.03
2023-05-02T19:27:24.917Z,100544.59
2023-05-02T19:30:30.569Z,100548.59
2023-05-02T19:33:34.915Z,100546.31
2023-05-02T19:36:39.916Z,100547.50
2023-05-02T19:39:47.858Z,100548.00
2023-05-02T19:42:50.978Z,100551.25
2023-05-02T19:45:54.160Z,100545.56
2023-05-02T19:48:57.958Z,100562.69
2023-05-02T19:52:01.399Z,100559.91
2023-05-02T19:55:07.291Z,100559.91
2023-05-02T19:58:11.190Z,100555.19
2023-05-02T20:01:15.044Z,100551.56
2023-05-02T20:04:20.158Z,100554.38
2023-05-02T20:07:23.836Z,100553.19
2023-05-02T20:10:27.315Z,100556.78
2023-05-02T20:13:30.368Z,100560.81
2023-05-02T20:16:33.546Z,100557.75
2023-05-02T20:19:36.709Z,100552.69
2023-05-02T20:22:42.720Z,100561.84
2023-05-02T20:25:46.094Z,100554.75
2023-05-02T20:28:49.393Z,100563.53
2023-05-02T20:31:54.510Z,100558.81
2023-05-02T20:34:59.874Z,100565.25
2023-05-02T20:38:02.588Z,100554.59
2023-05-02T20:41:10.704Z,100555.87
2023-05-02T20:44:17.008Z,100559.06
2023-05-02T20:47:20.278Z,100562.25
2023-05-02T20:50:23.235Z,100555.56
2023-05-02T20:53:26.327Z,100561.59
2023-05-02T20:56:28.979Z,100559.66
2023-05-02T20:59:32.748Z,100556.13
2023-05-02T21:02:35.914Z,100559.69
2023-05-02T21:05:38.924Z,100563.75
2023-05-02T21:08:42.182Z,100558.19
2023-05-02T21:11:46.092Z,100557.88
2023-05-02T21:14:48.858Z,100564.28
2023-05-02T21:18:00.276Z,100549.31
2023-05-02T21:21:02.949Z,100548.59
2023-05-02T21:24:06.686Z,100556.56
2023-05-02T21:27:09.493Z,100547.84
2023-05-02T21:30:13.245Z,100554.19
2023-05-02T21:33:17.720Z,100557.44
2023-05-02T21:36:20.807Z,100559.81
2023-05-02T21:39:23.694Z,100567.72
2023-05-02T21:42:26.745Z,100568.94
2023-05-02T21:45:30.170Z,100561.75
2023-05-02T21:48:34.092Z,100567.72
2023-05-02T21:51:40.028Z,100564.69
2023-05-02T21:54:43.045Z,100577.69
2023-05-02T21:57:45.762Z,100576.13
2023-05-02T22:00:48.864Z,100571.88
2023-05-02T22:03:52.259Z,100574.75
2023-05-02T22:06:54.984Z,100575.19
2023-05-02T22:09:58.188Z,100568.59
2023-05-02T22:13:01.534Z,100566.56
2023-05-02T22:16:04.770Z,100565.41
2023-05-02T22:19:07.669Z,100574.50
2023-05-02T22:22:11.426Z,100572.56
2023-05-02T22:25:14.180Z,100574.62
2023-05-02T22:28:17.149Z,100566.09
2023-05-02T22:31:20.742Z,100573.19
2023-05-02T22:34:23.786Z,100576.41
2023-05-02T22:37:26.476Z,100566.19
2023-05-02T22:40:33.331Z,100566.59
2023-05-02T22:43:36.754Z,100570.97
2023-05-02T22:46:39.735Z,100571.38
2023-05-02T22:49:43.003Z,100568.63
2023-05-02T22:52:46.641Z,100567.53
2023-05-02T22:55:51.562Z,100567.97
2023-05-02T22:58:54.624Z,100565.25
2023-05-02T23:02:00.624Z,100566.13
2023-05-02T23:05:04.518Z,100558.69
2023-05-02T23:08:07.154Z,100563.06
2023-05-02T23:11:10.277Z,100564.69
2023-05-02T23:14:13.340Z,100565.94
2023-05-02T23:17:16.384Z,100567.97
2023-05-02T23:20:21.522Z,100576.31
2023-05-02T23:23:24.507Z,100572.37
2023-05-02T23:26:27.178Z,100572.44
2023-05-02T23:29:30.206Z,100571.69
2023-05-02T23:32:33.669Z,100569.34
2023-05-02T23:35:37.103Z,100579.72
2023-05-02T23:38:40.596Z,100583.63
2023-05-02T23:41:43.652Z,100572.63
2023-05-02T23:44:47.222Z,100571.84
2023-05-02T23:47:50.497Z,100572.28
2023-05-02T23:50:54.197Z,100575.81
2023-05-02T23:53:57.651Z,100581.34
2023-05-02T23:57:00.801Z,100580.94
